sensor_id;sensor_type;location;lat;lon;timestamp;P1;durP1;ratioP1;P2;durP2;ratioP2
9836;SDS011;4957;51.412;6.724;2023-06-24T00:01:39;6.70;;;5.53;;
9836;SDS011;4957;51.412;6.724;2023-06-24T00:04:05;12.70;;;6.33;;
9836;SDS011;4957;51.412;6.724;2023-06-24T00:06:31;10.07;;;5.70;;
9836;SDS011;4957;51.412;6.724;2023-06-24T00:08:56;7.23;;;6.20;;
9836;SDS011;4957;51.412;6.724;2023-06-24T00:11:29;7.93;;;6.37;;
9836;SDS011;4957;51.412;6.724;2023-06-24T00:13:55;11.53;;;6.90;;
9836;SDS011;4957;51.412;6.724;2023-06-24T00:16:21;7.17;;;6.03;;
9836;SDS011;4957;51.412;6.724;2023-06-24T00:18:52;11.03;;;6.77;;
9836;SDS011;4957;51.412;6.724;2023-06-24T00:21:19;9.67;;;6.43;;
9836;SDS011;4957;51.412;6.724;2023-06-24T00:23:44;9.70;;;6.80;;
9836;SDS011;4957;51.412;6.724;2023-06-24T00:26:10;6.93;;;5.70;;
9836;SDS011;4957;51.412;6.724;2023-06-24T00:28:36;9.67;;;6.53;;
9836;SDS011;4957;51.412;6.724;2023-06-24T00:31:01;7.67;;;6.43;;
9836;SDS011;4957;51.412;6.724;2023-06-24T00:33:28;8.73;;;6.07;;
9836;SDS011;4957;51.412;6.724;2023-06-24T00:35:54;9.23;;;5.93;;
9836;SDS011;4957;51.412;6.724;2023-06-24T00:38:21;7.90;;;5.77;;
9836;SDS011;4957;51.412;6.724;2023-06-24T00:40:47;9.37;;;5.97;;
9836;SDS011;4957;51.412;6.724;2023-06-24T00:43:13;7.77;;;6.13;;
9836;SDS011;4957;51.412;6.724;2023-06-24T00:45:39;8.80;;;6.13;;
9836;SDS011;4957;51.412;6.724;2023-06-24T00:48:04;6.90;;;6.20;;
9836;SDS011;4957;51.412;6.724;2023-06-24T00:50:31;7.50;;;6.27;;
9836;SDS011;4957;51.412;6.724;2023-06-24T00:52:56;9.63;;;6.47;;
9836;SDS011;4957;51.412;6.724;2023-06-24T00:55:22;7.30;;;6.20;;
9836;SDS011;4957;51.412;6.724;2023-06-24T00:57:49;9.77;;;5.90;;
9836;SDS011;4957;51.412;6.724;2023-06-24T01:00:18;7.10;;;5.83;;
9836;SDS011;4957;51.412;6.724;2023-06-24T01:02:48;9.30;;;6.40;;
9836;SDS011;4957;51.412;6.724;2023-06-24T01:05:14;9.43;;;7.00;;
9836;SDS011;4957;51.412;6.724;2023-06-24T01:07:41;8.53;;;7.13;;
9836;SDS011;4957;51.412;6.724;2023-06-24T01:10:07;10.00;;;6.83;;
9836;SDS011;4957;51.412;6.724;2023-06-24T01:12:35;10.50;;;6.70;;
9836;SDS011;4957;51.412;6.724;2023-06-24T01:15:03;12.33;;;7.37;;
9836;SDS011;4957;51.412;6.724;2023-06-24T01:31:50;8.20;;;6.63;;
9836;SDS011;4957;51.412;6.724;2023-06-24T01:37:26;10.47;;;6.80;;
9836;SDS011;4957;51.412;6.724;2023-06-24T01:42:52;8.20;;;6.67;;
9836;SDS011;4957;51.412;6.724;2023-06-24T01:45:23;10.90;;;7.13;;
9836;SDS011;4957;51.412;6.724;2023-06-24T01:47:59;7.70;;;6.67;;
9836;SDS011;4957;51.412;6.724;2023-06-24T01:50:34;7.87;;;6.63;;
9836;SDS011;4957;51.412;6.724;2023-06-24T01:53:05;12.20;;;7.43;;
9836;SDS011;4957;51.412;6.724;2023-06-24T01:55:33;8.10;;;6.37;;
9836;SDS011;4957;51.412;6.724;2023-06-24T01:58:00;9.97;;;7.07;;
9836;SDS011;4957;51.412;6.724;2023-06-24T02:00:28;10.37;;;7.23;;
9836;SDS011;4957;51.412;6.724;2023-06-24T02:02:54;8.67;;;7.13;;
9836;SDS011;4957;51.412;6.724;2023-06-24T02:05:21;9.90;;;6.90;;
9836;SDS011;4957;51.412;6.724;2023-06-24T02:07:48;11.53;;;6.80;;
9836;SDS011;4957;51.412;6.724;2023-06-24T02:10:17;9.10;;;6.57;;
9836;SDS011;4957;51.412;6.724;2023-06-24T02:12:45;11.70;;;6.53;;
9836;SDS011;4957;51.412;6.724;2023-06-24T02:15:12;10.73;;;6.60;;
9836;SDS011;4957;51.412;6.724;2023-06-24T02:17:40;7.47;;;6.10;;
9836;SDS011;4957;51.412;6.724;2023-06-24T02:20:06;10.27;;;6.03;;
9836;SDS011;4957;51.412;6.724;2023-06-24T02:22:34;6.87;;;6.13;;
9836;SDS011;4957;51.412;6.724;2023-06-24T02:25:00;9.73;;;6.50;;
9836;SDS011;4957;51.412;6.724;2023-06-24T02:27:27;9.53;;;6.50;;
9836;SDS011;4957;51.412;6.724;2023-06-24T02:29:54;12.10;;;6.67;;
9836;SDS011;4957;51.412;6.724;2023-06-24T02:32:21;9.90;;;6.70;;
9836;SDS011;4957;51.412;6.724;2023-06-24T02:34:47;9.70;;;6.80;;
9836;SDS011;4957;51.412;6.724;2023-06-24T02:37:12;10.03;;;6.63;;
9836;SDS011;4957;51.412;6.724;2023-06-24T02:39:38;10.03;;;6.60;;
9836;SDS011;4957;51.412;6.724;2023-06-24T02:42:09;11.67;;;6.27;;
9836;SDS011;4957;51.412;6.724;2023-06-24T02:44:36;8.43;;;6.73;;
9836;SDS011;4957;51.412;6.724;2023-06-24T02:47:02;10.17;;;7.03;;
9836;SDS011;4957;51.412;6.724;2023-06-24T02:49:29;8.67;;;6.53;;
9836;SDS011;4957;51.412;6.724;2023-06-24T02:51:56;8.43;;;6.63;;
9836;SDS011;4957;51.412;6.724;2023-06-24T02:54:22;12.27;;;6.50;;
9836;SDS011;4957;51.412;6.724;2023-06-24T02:56:48;11.30;;;7.07;;
9836;SDS011;4957;51.412;6.724;2023-06-24T02:59:14;8.40;;;6.97;;
9836;SDS011;4957;51.412;6.724;2023-06-24T03:01:40;10.10;;;7.40;;
9836;SDS011;4957;51.412;6.724;2023-06-24T03:04:10;8.43;;;6.40;;
9836;SDS011;4957;51.412;6.724;2023-06-24T03:06:36;10.97;;;6.70;;
9836;SDS011;4957;51.412;6.724;2023-06-24T03:09:05;8.33;;;6.70;;
9836;SDS011;4957;51.412;6.724;2023-06-24T03:11:39;9.20;;;6.63;;
9836;SDS011;4957;51.412;6.724;2023-06-24T03:14:08;8.10;;;6.47;;
9836;SDS011;4957;51.412;6.724;2023-06-24T03:16:35;11.03;;;7.70;;
9836;SDS011;4957;51.412;6.724;2023-06-24T03:19:01;14.53;;;8.20;;
9836;SDS011;4957;51.412;6.724;2023-06-24T03:21:27;13.40;;;7.17;;
9836;SDS011;4957;51.412;6.724;2023-06-24T03:23:53;10.90;;;7.40;;
9836;SDS011;4957;51.412;6.724;2023-06-24T03:26:19;8.87;;;7.20;;
9836;SDS011;4957;51.412;6.724;2023-06-24T03:28:45;11.57;;;7.10;;
9836;SDS011;4957;51.412;6.724;2023-06-24T03:31:11;11.03;;;7.57;;
9836;SDS011;4957;51.412;6.724;2023-06-24T03:33:37;11.77;;;7.70;;
9836;SDS011;4957;51.412;6.724;2023-06-24T03:36:02;10.10;;;7.40;;
9836;SDS011;4957;51.412;6.724;2023-06-24T03:38:28;8.90;;;6.70;;
9836;SDS011;4957;51.412;6.724;2023-06-24T03:40:54;8.83;;;7.03;;
9836;SDS011;4957;51.412;6.724;2023-06-24T03:43:19;8.07;;;7.10;;
9836;SDS011;4957;51.412;6.724;2023-06-24T03:45:45;10.37;;;6.77;;
9836;SDS011;4957;51.412;6.724;2023-06-24T03:48:11;11.57;;;7.27;;
9836;SDS011;4957;51.412;6.724;2023-06-24T03:50:36;12.60;;;7.40;;
9836;SDS011;4957;51.412;6.724;2023-06-24T03:53:03;11.13;;;7.87;;
9836;SDS011;4957;51.412;6.724;2023-06-24T03:55:29;15.60;;;7.27;;
9836;SDS011;4957;51.412;6.724;2023-06-24T03:57:55;10.20;;;7.47;;
9836;SDS011;4957;51.412;6.724;2023-06-24T04:00:21;12.20;;;7.87;;
9836;SDS011;4957;51.412;6.724;2023-06-24T04:02:46;11.10;;;7.57;;
9836;SDS011;4957;51.412;6.724;2023-06-24T04:05:12;11.70;;;7.47;;
9836;SDS011;4957;51.412;6.724;2023-06-24T04:07:38;13.10;;;7.80;;
9836;SDS011;4957;51.412;6.724;2023-06-24T04:10:05;11.13;;;7.97;;
9836;SDS011;4957;51.412;6.724;2023-06-24T04:12:34;12.20;;;7.50;;
9836;SDS011;4957;51.412;6.724;2023-06-24T04:15:01;13.47;;;8.03;;
9836;SDS011;4957;51.412;6.724;2023-06-24T04:17:28;14.17;;;7.73;;
9836;SDS011;4957;51.412;6.724;2023-06-24T04:19:54;10.53;;;8.10;;
9836;SDS011;4957;51.412;6.724;2023-06-24T04:22:20;16.97;;;7.80;;
9836;SDS011;4957;51.412;6.724;2023-06-24T04:24:45;11.60;;;7.57;;
9836;SDS011;4957;51.412;6.724;2023-06-24T04:27:11;12.80;;;7.53;;
9836;SDS011;4957;51.412;6.724;2023-06-24T04:29:36;11.97;;;7.43;;
9836;SDS011;4957;51.412;6.724;2023-06-24T04:32:02;8.93;;;6.83;;
9836;SDS011;4957;51.412;6.724;2023-06-24T04:34:28;12.20;;;7.60;;
9836;SDS011;4957;51.412;6.724;2023-06-24T04:36:54;13.97;;;8.03;;
9836;SDS011;4957;51.412;6.724;2023-06-24T04:39:20;11.93;;;7.93;;
9836;SDS011;4957;51.412;6.724;2023-06-24T04:41:48;8.43;;;7.53;;
9836;SDS011;4957;51.412;6.724;2023-06-24T04:44:14;10.23;;;7.40;;
9836;SDS011;4957;51.412;6.724;2023-06-24T04:46:40;12.47;;;8.17;;
9836;SDS011;4957;51.412;6.724;2023-06-24T04:49:06;11.27;;;7.30;;
9836;SDS011;4957;51.412;6.724;2023-06-24T04:51:32;12.43;;;8.10;;
9836;SDS011;4957;51.412;6.724;2023-06-24T04:53:57;12.47;;;8.40;;
9836;SDS011;4957;51.412;6.724;2023-06-24T04:56:24;12.83;;;8.50;;
9836;SDS011;4957;51.412;6.724;2023-06-24T04:58:49;11.17;;;8.60;;
9836;SDS011;4957;51.412;6.724;2023-06-24T05:01:15;10.97;;;8.33;;
9836;SDS011;4957;51.412;6.724;2023-06-24T05:03:42;11.67;;;8.63;;
9836;SDS011;4957;51.412;6.724;2023-06-24T05:06:07;10.60;;;8.80;;
9836;SDS011;4957;51.412;6.724;2023-06-24T05:08:33;13.40;;;8.70;;
9836;SDS011;4957;51.412;6.724;2023-06-24T05:10:59;12.87;;;8.70;;
9836;SDS011;4957;51.412;6.724;2023-06-24T05:13:24;10.37;;;8.37;;
9836;SDS011;4957;51.412;6.724;2023-06-24T05:15:52;10.10;;;9.00;;
9836;SDS011;4957;51.412;6.724;2023-06-24T05:18:17;10.73;;;8.57;;
9836;SDS011;4957;51.412;6.724;2023-06-24T05:20:43;13.30;;;8.40;;
9836;SDS011;4957;51.412;6.724;2023-06-24T05:23:09;15.60;;;8.03;;
9836;SDS011;4957;51.412;6.724;2023-06-24T05:25:34;19.53;;;8.97;;
9836;SDS011;4957;51.412;6.724;2023-06-24T05:28:00;13.17;;;8.57;;
9836;SDS011;4957;51.412;6.724;2023-06-24T05:30:26;11.17;;;8.77;;
9836;SDS011;4957;51.412;6.724;2023-06-24T05:32:52;10.77;;;8.40;;
9836;SDS011;4957;51.412;6.724;2023-06-24T05:35:17;11.43;;;9.00;;
9836;SDS011;4957;51.412;6.724;2023-06-24T05:37:43;10.63;;;9.23;;
9836;SDS011;4957;51.412;6.724;2023-06-24T05:40:09;15.37;;;8.90;;
9836;SDS011;4957;51.412;6.724;2023-06-24T05:42:35;14.77;;;8.83;;
9836;SDS011;4957;51.412;6.724;2023-06-24T05:45:01;15.90;;;8.57;;
9836;SDS011;4957;51.412;6.724;2023-06-24T05:47:26;11.67;;;9.10;;
9836;SDS011;4957;51.412;6.724;2023-06-24T05:49:52;14.40;;;8.77;;
9836;SDS011;4957;51.412;6.724;2023-06-24T05:52:18;13.40;;;9.50;;
9836;SDS011;4957;51.412;6.724;2023-06-24T05:54:44;16.67;;;11.13;;
9836;SDS011;4957;51.412;6.724;2023-06-24T05:57:09;22.00;;;11.30;;
9836;SDS011;4957;51.412;6.724;2023-06-24T05:59:35;14.30;;;10.70;;
9836;SDS011;4957;51.412;6.724;2023-06-24T06:02:01;18.17;;;11.30;;
9836;SDS011;4957;51.412;6.724;2023-06-24T06:04:27;17.07;;;9.87;;
9836;SDS011;4957;51.412;6.724;2023-06-24T06:06:56;17.27;;;11.10;;
9836;SDS011;4957;51.412;6.724;2023-06-24T06:09:22;16.30;;;11.13;;
9836;SDS011;4957;51.412;6.724;2023-06-24T06:11:47;14.83;;;11.77;;
9836;SDS011;4957;51.412;6.724;2023-06-24T06:14:13;17.30;;;11.70;;
9836;SDS011;4957;51.412;6.724;2023-06-24T06:16:39;17.37;;;11.20;;
9836;SDS011;4957;51.412;6.724;2023-06-24T06:19:05;18.77;;;11.87;;
9836;SDS011;4957;51.412;6.724;2023-06-24T06:21:31;15.57;;;11.47;;
9836;SDS011;4957;51.412;6.724;2023-06-24T06:23:57;19.00;;;11.70;;
9836;SDS011;4957;51.412;6.724;2023-06-24T06:26:22;16.37;;;10.27;;
9836;SDS011;4957;51.412;6.724;2023-06-24T06:28:48;16.63;;;11.20;;
9836;SDS011;4957;51.412;6.724;2023-06-24T06:31:14;16.97;;;10.67;;
9836;SDS011;4957;51.412;6.724;2023-06-24T06:33:40;15.70;;;10.90;;
9836;SDS011;4957;51.412;6.724;2023-06-24T06:36:06;16.27;;;10.67;;
9836;SDS011;4957;51.412;6.724;2023-06-24T06:38:32;14.27;;;10.47;;
9836;SDS011;4957;51.412;6.724;2023-06-24T06:40:58;15.83;;;10.77;;
9836;SDS011;4957;51.412;6.724;2023-06-24T06:43:24;19.17;;;9.37;;
9836;SDS011;4957;51.412;6.724;2023-06-24T06:45:50;14.83;;;9.90;;
9836;SDS011;4957;51.412;6.724;2023-06-24T06:48:15;17.93;;;10.37;;
9836;SDS011;4957;51.412;6.724;2023-06-24T06:50:41;18.13;;;10.00;;
9836;SDS011;4957;51.412;6.724;2023-06-24T06:53:07;14.00;;;10.00;;
9836;SDS011;4957;51.412;6.724;2023-06-24T06:55:32;20.53;;;10.80;;
9836;SDS011;4957;51.412;6.724;2023-06-24T06:57:58;16.57;;;11.00;;
9836;SDS011;4957;51.412;6.724;2023-06-24T07:00:24;15.93;;;10.43;;
9836;SDS011;4957;51.412;6.724;2023-06-24T07:02:50;15.73;;;10.70;;
9836;SDS011;4957;51.412;6.724;2023-06-24T07:05:15;16.50;;;10.00;;
9836;SDS011;4957;51.412;6.724;2023-06-24T07:07:41;17.30;;;10.30;;
9836;SDS011;4957;51.412;6.724;2023-06-24T07:10:09;14.73;;;10.43;;
9836;SDS011;4957;51.412;6.724;2023-06-24T07:12:35;14.90;;;10.03;;
9836;SDS011;4957;51.412;6.724;2023-06-24T07:15:01;25.63;;;10.40;;
9836;SDS011;4957;51.412;6.724;2023-06-24T07:17:27;17.37;;;9.90;;
9836;SDS011;4957;51.412;6.724;2023-06-24T07:19:52;14.00;;;10.47;;
9836;SDS011;4957;51.412;6.724;2023-06-24T07:22:18;13.43;;;10.13;;
9836;SDS011;4957;51.412;6.724;2023-06-24T07:24:44;13.33;;;9.57;;
9836;SDS011;4957;51.412;6.724;2023-06-24T07:27:09;16.33;;;9.50;;
9836;SDS011;4957;51.412;6.724;2023-06-24T07:29:35;11.33;;;9.60;;
9836;SDS011;4957;51.412;6.724;2023-06-24T07:32:01;14.00;;;9.90;;
9836;SDS011;4957;51.412;6.724;2023-06-24T07:34:28;14.43;;;10.17;;
9836;SDS011;4957;51.412;6.724;2023-06-24T07:36:55;13.33;;;8.33;;
9836;SDS011;4957;51.412;6.724;2023-06-24T07:39:21;15.37;;;8.17;;
9836;SDS011;4957;51.412;6.724;2023-06-24T07:41:47;11.70;;;8.03;;
9836;SDS011;4957;51.412;6.724;2023-06-24T07:44:12;9.40;;;7.57;;
9836;SDS011;4957;51.412;6.724;2023-06-24T07:46:38;7.60;;;6.27;;
9836;SDS011;4957;51.412;6.724;2023-06-24T07:49:04;14.27;;;7.00;;
9836;SDS011;4957;51.412;6.724;2023-06-24T07:51:30;9.63;;;6.00;;
9836;SDS011;4957;51.412;6.724;2023-06-24T07:53:55;9.50;;;6.73;;
9836;SDS011;4957;51.412;6.724;2023-06-24T07:56:21;7.20;;;6.50;;
9836;SDS011;4957;51.412;6.724;2023-06-24T07:58:47;7.70;;;6.90;;
9836;SDS011;4957;51.412;6.724;2023-06-24T08:01:12;8.63;;;6.27;;
9836;SDS011;4957;51.412;6.724;2023-06-24T08:03:38;9.13;;;5.83;;
9836;SDS011;4957;51.412;6.724;2023-06-24T08:06:04;6.93;;;5.60;;
9836;SDS011;4957;51.412;6.724;2023-06-24T08:08:31;6.80;;;5.43;;
9836;SDS011;4957;51.412;6.724;2023-06-24T08:10:57;6.93;;;5.77;;
9836;SDS011;4957;51.412;6.724;2023-06-24T08:13:22;7.03;;;5.37;;
9836;SDS011;4957;51.412;6.724;2023-06-24T08:15:48;5.70;;;4.70;;
9836;SDS011;4957;51.412;6.724;2023-06-24T08:18:14;6.07;;;5.20;;
9836;SDS011;4957;51.412;6.724;2023-06-24T08:20:39;5.00;;;4.20;;
9836;SDS011;4957;51.412;6.724;2023-06-24T08:23:05;5.37;;;4.27;;
9836;SDS011;4957;51.412;6.724;2023-06-24T08:25:31;8.23;;;4.13;;
9836;SDS011;4957;51.412;6.724;2023-06-24T08:27:57;4.93;;;3.80;;
9836;SDS011;4957;51.412;6.724;2023-06-24T08:30:22;6.33;;;4.80;;
9836;SDS011;4957;51.412;6.724;2023-06-24T08:32:48;6.33;;;4.97;;
9836;SDS011;4957;51.412;6.724;2023-06-24T08:35:13;6.43;;;4.77;;
9836;SDS011;4957;51.412;6.724;2023-06-24T08:37:39;6.47;;;4.60;;
9836;SDS011;4957;51.412;6.724;2023-06-24T08:40:05;11.67;;;5.00;;
9836;SDS011;4957;51.412;6.724;2023-06-24T08:42:31;8.30;;;5.20;;
9836;SDS011;4957;51.412;6.724;2023-06-24T08:44:57;6.53;;;5.00;;
9836;SDS011;4957;51.412;6.724;2023-06-24T08:47:23;9.27;;;5.63;;
9836;SDS011;4957;51.412;6.724;2023-06-24T08:49:53;7.10;;;4.90;;
9836;SDS011;4957;51.412;6.724;2023-06-24T08:52:29;7.97;;;5.97;;
9836;SDS011;4957;51.412;6.724;2023-06-24T08:54:57;8.30;;;5.33;;
9836;SDS011;4957;51.412;6.724;2023-06-24T08:57:26;11.77;;;5.43;;
9836;SDS011;4957;51.412;6.724;2023-06-24T08:59:52;7.27;;;5.90;;
9836;SDS011;4957;51.412;6.724;2023-06-24T09:02:18;11.60;;;6.93;;
9836;SDS011;4957;51.412;6.724;2023-06-24T09:04:44;6.83;;;5.03;;
9836;SDS011;4957;51.412;6.724;2023-06-24T09:07:10;6.00;;;3.93;;
9836;SDS011;4957;51.412;6.724;2023-06-24T09:09:43;6.80;;;4.60;;
9836;SDS011;4957;51.412;6.724;2023-06-24T09:12:10;6.73;;;4.83;;
9836;SDS011;4957;51.412;6.724;2023-06-24T09:14:38;6.73;;;4.17;;
9836;SDS011;4957;51.412;6.724;2023-06-24T09:17:04;5.97;;;3.50;;
9836;SDS011;4957;51.412;6.724;2023-06-24T09:19:30;6.13;;;3.73;;
9836;SDS011;4957;51.412;6.724;2023-06-24T09:22:04;5.57;;;3.87;;
9836;SDS011;4957;51.412;6.724;2023-06-24T09:24:32;6.17;;;4.20;;
9836;SDS011;4957;51.412;6.724;2023-06-24T09:26:58;5.37;;;3.47;;
9836;SDS011;4957;51.412;6.724;2023-06-24T09:29:42;4.00;;;3.40;;
9836;SDS011;4957;51.412;6.724;2023-06-24T09:32:08;7.67;;;3.70;;
9836;SDS011;4957;51.412;6.724;2023-06-24T09:34:34;4.50;;;3.47;;
9836;SDS011;4957;51.412;6.724;2023-06-24T09:37:01;5.30;;;3.03;;
9836;SDS011;4957;51.412;6.724;2023-06-24T09:39:27;4.27;;;2.70;;
9836;SDS011;4957;51.412;6.724;2023-06-24T09:44:21;4.13;;;3.20;;
9836;SDS011;4957;51.412;6.724;2023-06-24T09:46:48;3.33;;;2.90;;
9836;SDS011;4957;51.412;6.724;2023-06-24T09:49:13;6.00;;;4.00;;
9836;SDS011;4957;51.412;6.724;2023-06-24T09:51:40;3.37;;;3.00;;
9836;SDS011;4957;51.412;6.724;2023-06-24T09:54:09;9.07;;;4.30;;
9836;SDS011;4957;51.412;6.724;2023-06-24T09:56:36;4.23;;;3.03;;
9836;SDS011;4957;51.412;6.724;2023-06-24T09:59:04;4.80;;;3.10;;
9836;SDS011;4957;51.412;6.724;2023-06-24T10:01:31;4.87;;;3.47;;
9836;SDS011;4957;51.412;6.724;2023-06-24T10:04:00;3.50;;;2.90;;
9836;SDS011;4957;51.412;6.724;2023-06-24T10:06:27;3.53;;;3.20;;
9836;SDS011;4957;51.412;6.724;2023-06-24T10:08:53;4.47;;;3.23;;
9836;SDS011;4957;51.412;6.724;2023-06-24T10:11:19;4.67;;;2.90;;
9836;SDS011;4957;51.412;6.724;2023-06-24T10:13:46;4.27;;;2.80;;
9836;SDS011;4957;51.412;6.724;2023-06-24T10:16:12;3.03;;;2.43;;
9836;SDS011;4957;51.412;6.724;2023-06-24T10:18:38;4.50;;;2.87;;
9836;SDS011;4957;51.412;6.724;2023-06-24T10:21:06;3.20;;;2.83;;
9836;SDS011;4957;51.412;6.724;2023-06-24T10:23:39;3.33;;;3.03;;
9836;SDS011;4957;51.412;6.724;2023-06-24T10:26:26;4.17;;;2.70;;
9836;SDS011;4957;51.412;6.724;2023-06-24T10:47:33;3.70;;;2.70;;
9836;SDS011;4957;51.412;6.724;2023-06-24T10:50:00;3.43;;;2.77;;
9836;SDS011;4957;51.412;6.724;2023-06-24T10:52:25;3.97;;;3.00;;
9836;SDS011;4957;51.412;6.724;2023-06-24T10:54:52;3.07;;;2.73;;
9836;SDS011;4957;51.412;6.724;2023-06-24T10:57:24;3.37;;;3.00;;
9836;SDS011;4957;51.412;6.724;2023-06-24T10:59:54;5.33;;;3.03;;
9836;SDS011;4957;51.412;6.724;2023-06-24T11:02:22;4.60;;;3.23;;
9836;SDS011;4957;51.412;6.724;2023-06-24T11:04:57;4.67;;;2.93;;
9836;SDS011;4957;51.412;6.724;2023-06-24T11:07:30;3.93;;;2.80;;
9836;SDS011;4957;51.412;6.724;2023-06-24T11:10:01;6.40;;;2.93;;
9836;SDS011;4957;51.412;6.724;2023-06-24T11:12:27;3.33;;;3.03;;
9836;SDS011;4957;51.412;6.724;2023-06-24T11:17:50;3.23;;;2.70;;
9836;SDS011;4957;51.412;6.724;2023-06-24T11:20:16;4.77;;;2.50;;
9836;SDS011;4957;51.412;6.724;2023-06-24T11:22:42;2.80;;;2.60;;
9836;SDS011;4957;51.412;6.724;2023-06-24T11:27:44;3.63;;;2.47;;
9836;SDS011;4957;51.412;6.724;2023-06-24T11:30:11;2.80;;;2.60;;
9836;SDS011;4957;51.412;6.724;2023-06-24T11:35:13;3.23;;;2.93;;
9836;SDS011;4957;51.412;6.724;2023-06-24T11:37:43;4.00;;;2.73;;
9836;SDS011;4957;51.412;6.724;2023-06-24T11:40:10;6.90;;;3.20;;
9836;SDS011;4957;51.412;6.724;2023-06-24T11:42:37;3.83;;;2.67;;
9836;SDS011;4957;51.412;6.724;2023-06-24T11:45:08;3.73;;;2.60;;
9836;SDS011;4957;51.412;6.724;2023-06-24T11:47:36;3.20;;;2.50;;
9836;SDS011;4957;51.412;6.724;2023-06-24T11:50:03;2.83;;;2.50;;
9836;SDS011;4957;51.412;6.724;2023-06-24T11:55:12;4.43;;;2.60;;
9836;SDS011;4957;51.412;6.724;2023-06-24T12:00:29;2.73;;;2.50;;
9836;SDS011;4957;51.412;6.724;2023-06-24T12:03:00;2.17;;;2.03;;
9836;SDS011;4957;51.412;6.724;2023-06-24T12:05:30;3.17;;;2.87;;
9836;SDS011;4957;51.412;6.724;2023-06-24T12:10:24;3.07;;;2.37;;
9836;SDS011;4957;51.412;6.724;2023-06-24T12:12:51;2.60;;;2.40;;
9836;SDS011;4957;51.412;6.724;2023-06-24T12:15:17;2.73;;;2.33;;
9836;SDS011;4957;51.412;6.724;2023-06-24T12:17:43;2.63;;;2.33;;
9836;SDS011;4957;51.412;6.724;2023-06-24T12:20:08;2.90;;;2.10;;
9836;SDS011;4957;51.412;6.724;2023-06-24T12:22:35;2.83;;;2.20;;
9836;SDS011;4957;51.412;6.724;2023-06-24T12:25:01;3.20;;;2.30;;
9836;SDS011;4957;51.412;6.724;2023-06-24T12:27:27;2.20;;;2.00;;
9836;SDS011;4957;51.412;6.724;2023-06-24T12:29:53;2.30;;;2.10;;
9836;SDS011;4957;51.412;6.724;2023-06-24T12:32:18;4.97;;;2.40;;
9836;SDS011;4957;51.412;6.724;2023-06-24T12:34:44;2.17;;;1.97;;
9836;SDS011;4957;51.412;6.724;2023-06-24T12:37:10;2.47;;;2.10;;
9836;SDS011;4957;51.412;6.724;2023-06-24T12:39:35;3.03;;;1.90;;
9836;SDS011;4957;51.412;6.724;2023-06-24T12:42:01;3.20;;;1.70;;
9836;SDS011;4957;51.412;6.724;2023-06-24T12:44:27;3.13;;;1.88;;
9836;SDS011;4957;51.412;6.724;2023-06-24T12:46:52;1.90;;;1.80;;
9836;SDS011;4957;51.412;6.724;2023-06-24T12:49:18;9.02;;;2.10;;
9836;SDS011;4957;51.412;6.724;2023-06-24T12:51:44;2.60;;;1.60;;
9836;SDS011;4957;51.412;6.724;2023-06-24T12:54:10;1.85;;;1.63;;
9836;SDS011;4957;51.412;6.724;2023-06-24T12:56:36;2.17;;;1.90;;
9836;SDS011;4957;51.412;6.724;2023-06-24T12:59:02;2.47;;;1.92;;
9836;SDS011;4957;51.412;6.724;2023-06-24T13:01:28;2.20;;;2.00;;
9836;SDS011;4957;51.412;6.724;2023-06-24T13:03:53;1.77;;;1.67;;
9836;SDS011;4957;51.412;6.724;2023-06-24T13:06:19;2.43;;;1.87;;
9836;SDS011;4957;51.412;6.724;2023-06-24T13:08:45;3.38;;;2.03;;
9836;SDS011;4957;51.412;6.724;2023-06-24T13:11:10;2.13;;;1.83;;
9836;SDS011;4957;51.412;6.724;2023-06-24T13:13:36;1.73;;;1.60;;
9836;SDS011;4957;51.412;6.724;2023-06-24T13:16:02;3.22;;;2.10;;
9836;SDS011;4957;51.412;6.724;2023-06-24T13:18:27;1.77;;;1.67;;
9836;SDS011;4957;51.412;6.724;2023-06-24T13:20:53;3.35;;;1.77;;
9836;SDS011;4957;51.412;6.724;2023-06-24T13:23:19;2.33;;;1.70;;
9836;SDS011;4957;51.412;6.724;2023-06-24T13:25:44;2.63;;;2.00;;
9836;SDS011;4957;51.412;6.724;2023-06-24T13:28:10;2.10;;;1.90;;
9836;SDS011;4957;51.412;6.724;2023-06-24T13:30:36;2.13;;;1.70;;
9836;SDS011;4957;51.412;6.724;2023-06-24T13:33:01;3.93;;;2.00;;
9836;SDS011;4957;51.412;6.724;2023-06-24T13:35:27;1.97;;;1.87;;
9836;SDS011;4957;51.412;6.724;2023-06-24T13:37:53;1.97;;;1.57;;
9836;SDS011;4957;51.412;6.724;2023-06-24T13:40:19;5.53;;;2.00;;
9836;SDS011;4957;51.412;6.724;2023-06-24T13:42:45;2.90;;;1.70;;
9836;SDS011;4957;51.412;6.724;2023-06-24T13:45:11;2.07;;;1.87;;
9836;SDS011;4957;51.412;6.724;2023-06-24T13:47:36;1.77;;;1.67;;
9836;SDS011;4957;51.412;6.724;2023-06-24T13:50:02;2.20;;;1.93;;
9836;SDS011;4957;51.412;6.724;2023-06-24T13:52:29;3.53;;;1.90;;
9836;SDS011;4957;51.412;6.724;2023-06-24T13:54:54;2.40;;;2.20;;
9836;SDS011;4957;51.412;6.724;2023-06-24T13:57:20;5.40;;;2.13;;
9836;SDS011;4957;51.412;6.724;2023-06-24T13:59:46;1.80;;;1.70;;
9836;SDS011;4957;51.412;6.724;2023-06-24T14:02:12;2.00;;;1.90;;
9836;SDS011;4957;51.412;6.724;2023-06-24T14:04:38;2.00;;;1.80;;
9836;SDS011;4957;51.412;6.724;2023-06-24T14:07:07;2.80;;;1.90;;
9836;SDS011;4957;51.412;6.724;2023-06-24T14:09:33;2.47;;;2.27;;
9836;SDS011;4957;51.412;6.724;2023-06-24T14:11:59;5.43;;;2.03;;
9836;SDS011;4957;51.412;6.724;2023-06-24T14:14:24;2.30;;;1.90;;
9836;SDS011;4957;51.412;6.724;2023-06-24T14:16:50;1.83;;;1.63;;
9836;SDS011;4957;51.412;6.724;2023-06-24T14:19:16;4.37;;;2.37;;
9836;SDS011;4957;51.412;6.724;2023-06-24T14:21:42;2.37;;;2.17;;
9836;SDS011;4957;51.412;6.724;2023-06-24T14:24:07;2.37;;;1.70;;
9836;SDS011;4957;51.412;6.724;2023-06-24T14:26:35;1.80;;;1.70;;
9836;SDS011;4957;51.412;6.724;2023-06-24T14:29:01;2.00;;;1.70;;
9836;SDS011;4957;51.412;6.724;2023-06-24T14:31:27;2.00;;;1.90;;
9836;SDS011;4957;51.412;6.724;2023-06-24T14:33:52;2.17;;;1.97;;
9836;SDS011;4957;51.412;6.724;2023-06-24T14:36:18;3.40;;;2.67;;
9836;SDS011;4957;51.412;6.724;2023-06-24T14:38:44;2.00;;;1.60;;
9836;SDS011;4957;51.412;6.724;2023-06-24T14:41:10;2.83;;;1.67;;
9836;SDS011;4957;51.412;6.724;2023-06-24T14:43:36;2.07;;;1.70;;
9836;SDS011;4957;51.412;6.724;2023-06-24T14:46:02;3.10;;;1.70;;
9836;SDS011;4957;51.412;6.724;2023-06-24T14:48:27;3.20;;;1.53;;
9836;SDS011;4957;51.412;6.724;2023-06-24T14:50:53;1.80;;;1.70;;
9836;SDS011;4957;51.412;6.724;2023-06-24T14:53:19;1.90;;;1.80;;
9836;SDS011;4957;51.412;6.724;2023-06-24T14:55:45;1.63;;;1.53;;
9836;SDS011;4957;51.412;6.724;2023-06-24T14:58:11;1.80;;;1.70;;
9836;SDS011;4957;51.412;6.724;2023-06-24T15:00:37;2.33;;;1.90;;
9836;SDS011;4957;51.412;6.724;2023-06-24T15:03:02;2.03;;;1.60;;
9836;SDS011;4957;51.412;6.724;2023-06-24T15:05:28;3.00;;;1.90;;
9836;SDS011;4957;51.412;6.724;2023-06-24T15:07:54;2.00;;;1.90;;
9836;SDS011;4957;51.412;6.724;2023-06-24T15:10:20;1.97;;;1.80;;
9836;SDS011;4957;51.412;6.724;2023-06-24T15:12:45;2.00;;;1.80;;
9836;SDS011;4957;51.412;6.724;2023-06-24T15:15:11;2.40;;;2.20;;
9836;SDS011;4957;51.412;6.724;2023-06-24T15:17:37;2.10;;;1.90;;
9836;SDS011;4957;51.412;6.724;2023-06-24T15:20:06;2.07;;;1.90;;
9836;SDS011;4957;51.412;6.724;2023-06-24T15:22:34;4.03;;;2.00;;
9836;SDS011;4957;51.412;6.724;2023-06-24T15:24:59;2.30;;;1.80;;
9836;SDS011;4957;51.412;6.724;2023-06-24T15:27:25;2.03;;;1.73;;
9836;SDS011;4957;51.412;6.724;2023-06-24T15:29:51;1.87;;;1.70;;
9836;SDS011;4957;51.412;6.724;2023-06-24T15:32:17;2.20;;;2.00;;
9836;SDS011;4957;51.412;6.724;2023-06-24T15:34:42;1.90;;;1.70;;
9836;SDS011;4957;51.412;6.724;2023-06-24T15:37:08;1.97;;;1.87;;
9836;SDS011;4957;51.412;6.724;2023-06-24T15:39:34;1.57;;;1.47;;
9836;SDS011;4957;51.412;6.724;2023-06-24T15:42:00;1.70;;;1.60;;
9836;SDS011;4957;51.412;6.724;2023-06-24T15:44:25;2.57;;;1.77;;
9836;SDS011;4957;51.412;6.724;2023-06-24T15:46:51;4.77;;;2.00;;
9836;SDS011;4957;51.412;6.724;2023-06-24T15:49:17;2.00;;;1.80;;
9836;SDS011;4957;51.412;6.724;2023-06-24T15:51:43;3.27;;;1.80;;
9836;SDS011;4957;51.412;6.724;2023-06-24T15:54:08;1.80;;;1.70;;
9836;SDS011;4957;51.412;6.724;2023-06-24T15:56:34;2.10;;;1.90;;
9836;SDS011;4957;51.412;6.724;2023-06-24T15:59:00;2.37;;;2.17;;
9836;SDS011;4957;51.412;6.724;2023-06-24T16:01:26;2.10;;;1.90;;
9836;SDS011;4957;51.412;6.724;2023-06-24T16:03:51;3.00;;;1.93;;